Weather at Larisa

Public forecast

Using degrees Celsius for public forecast. Weather courtesy of forecast.io.

Closest aviation weather report (METAR) to Larisa

Closest report is Larisa Air Base, 5.8 nm (10.8 km) E. Retrieved 2022/01/19 22:50 UTC (43 minutes ago):

LGLR 192250Z 00000KT CAVOK M04/M07 Q1029 BLU

Closest aviation forecast (TAF) to Larisa

Closest forecast is Thessaloniki Macedonia International Airport, 59.4 nm (110.0 km) NNE. Retrieved 2022/01/19 18:17 UTC (5 hours ago):

TAF LGTS 191700Z 1918/2018 VRB03KT 9999 FEW030